createdAt,value
2019-02-24T00:01:06.577Z,55.46
2019-02-24T00:03:34.882Z,55.16
2019-02-24T00:06:03.164Z,55.70
2019-02-24T00:08:31.430Z,55.70
2019-02-24T00:10:59.736Z,55.71
2019-02-24T00:13:27.999Z,55.34
2019-02-24T00:15:56.306Z,55.43
2019-02-24T00:18:24.626Z,55.61
2019-02-24T00:20:52.974Z,56.62
2019-02-24T00:23:21.226Z,56.33
2019-02-24T00:25:49.495Z,56.32
2019-02-24T00:28:17.815Z,56.84
2019-02-24T00:30:46.090Z,56.35
2019-02-24T00:33:14.391Z,56.03
2019-02-24T00:35:42.661Z,56.29
2019-02-24T00:38:10.944Z,55.78
2019-02-24T00:40:39.222Z,56.03
2019-02-24T00:43:07.518Z,56.86
2019-02-24T00:45:35.818Z,57.11
2019-02-24T00:48:04.088Z,57.87
2019-02-24T00:50:32.387Z,57.62
2019-02-24T00:53:00.680Z,58.62
2019-02-24T00:55:30.636Z,59.08
2019-02-24T00:57:58.963Z,58.54
2019-02-24T01:00:27.305Z,58.06
2019-02-24T01:02:55.582Z,56.76
2019-02-24T01:05:23.856Z,56.55
2019-02-24T01:07:52.158Z,55.51
2019-02-24T01:10:20.427Z,55.60
2019-02-24T01:12:48.734Z,55.31
2019-02-24T01:15:17.004Z,55.04
2019-02-24T01:17:45.285Z,54.77
2019-02-24T01:20:13.573Z,54.94
2019-02-24T01:22:41.871Z,53.98
2019-02-24T01:25:10.150Z,54.42
2019-02-24T01:27:38.459Z,53.92
2019-02-24T01:30:09.472Z,53.51
2019-02-24T01:32:37.739Z,53.30
2019-02-24T01:35:07.784Z,53.62
2019-02-24T01:37:36.052Z,53.35
2019-02-24T01:40:05.949Z,53.84
2019-02-24T01:42:34.218Z,54.09
2019-02-24T01:45:02.508Z,54.68
2019-02-24T01:47:30.776Z,53.56
2019-02-24T01:49:59.076Z,53.35
2019-02-24T01:52:27.358Z,52.86
2019-02-24T01:54:55.618Z,52.93
2019-02-24T01:57:23.914Z,52.69
2019-02-24T01:59:53.131Z,52.69
2019-02-24T02:02:21.404Z,53.79
2019-02-24T02:04:49.674Z,53.15
2019-02-24T02:07:17.958Z,53.56
2019-02-24T02:09:46.256Z,53.83
2019-02-24T02:12:14.524Z,53.86
2019-02-24T02:14:42.817Z,52.97
2019-02-24T02:17:11.091Z,52.85
2019-02-24T02:19:39.389Z,53.17
2019-02-24T02:22:07.674Z,52.93
2019-02-24T02:24:35.944Z,52.69
2019-02-24T02:27:04.222Z,53.08
2019-02-24T02:29:32.569Z,53.46
2019-02-24T02:32:00.857Z,53.39
2019-02-24T02:34:29.148Z,53.49
2019-02-24T02:36:57.410Z,53.26
2019-02-24T02:39:25.708Z,53.21
2019-02-24T02:41:53.995Z,53.62
2019-02-24T02:44:22.283Z,52.57
2019-02-24T02:46:50.612Z,52.28
2019-02-24T02:49:18.908Z,52.12
2019-02-24T02:51:47.164Z,52.34
2019-02-24T02:54:15.492Z,52.31
2019-02-24T02:56:43.752Z,52.49
2019-02-24T02:59:12.020Z,52.29
2019-02-24T03:01:40.295Z,52.02
2019-02-24T03:04:08.599Z,53.41
2019-02-24T03:06:41.506Z,55.67
2019-02-24T03:09:10.934Z,56.57
2019-02-24T03:11:39.283Z,57.12
2019-02-24T03:14:07.592Z,56.44
2019-02-24T03:16:35.864Z,55.46
2019-02-24T03:19:04.146Z,54.42
2019-02-24T03:21:32.423Z,54.41
2019-02-24T03:24:00.722Z,54.03
2019-02-24T03:26:28.977Z,53.35
2019-02-24T03:29:03.849Z,53.75
2019-02-24T03:31:27.270Z,53.17
2019-02-24T03:33:55.566Z,53.20
2019-02-24T03:36:23.824Z,52.37
2019-02-24T03:38:52.100Z,52.00
2019-02-24T03:41:20.470Z,51.79
2019-02-24T03:43:48.736Z,52.39
2019-02-24T03:46:17.037Z,53.06
2019-02-24T03:48:45.292Z,52.60
2019-02-24T03:51:13.567Z,52.27
2019-02-24T03:53:41.842Z,52.58
2019-02-24T03:56:10.111Z,52.15
2019-02-24T03:58:38.383Z,52.38
2019-02-24T04:01:06.656Z,54.30
2019-02-24T04:03:34.936Z,56.56
2019-02-24T04:06:03.204Z,58.12
2019-02-24T04:08:31.516Z,58.23
2019-02-24T04:10:59.787Z,56.69
2019-02-24T04:13:28.071Z,55.72
2019-02-24T04:15:56.360Z,55.34
2019-02-24T04:18:24.643Z,55.16
2019-02-24T04:20:52.916Z,54.94
2019-02-24T04:23:21.219Z,54.55
2019-02-24T04:25:49.519Z,53.94
2019-02-24T04:28:17.786Z,53.90
2019-02-24T04:30:46.085Z,53.94
2019-02-24T04:33:14.525Z,53.80
2019-02-24T04:35:42.831Z,53.81
2019-02-24T04:38:11.085Z,53.84
2019-02-24T04:40:39.379Z,53.44
2019-02-24T04:43:07.636Z,53.64
2019-02-24T04:45:35.921Z,53.29
2019-02-24T04:48:04.190Z,53.39
2019-02-24T04:50:32.502Z,54.05
2019-02-24T04:53:00.834Z,54.19
2019-02-24T04:55:29.134Z,54.32
2019-02-24T04:57:57.403Z,54.46
2019-02-24T05:00:25.684Z,54.20
2019-02-24T05:02:53.980Z,54.41
2019-02-24T05:05:22.252Z,54.84
2019-02-24T05:07:50.591Z,54.97
2019-02-24T05:10:18.855Z,55.60
2019-02-24T05:12:47.120Z,55.47
2019-02-24T05:15:15.399Z,55.19
2019-02-24T05:17:43.698Z,54.72
2019-02-24T05:20:11.962Z,55.23
2019-02-24T05:22:40.238Z,55.84
2019-02-24T05:25:08.505Z,56.04
2019-02-24T05:27:36.802Z,55.63
2019-02-24T05:30:05.810Z,55.75
2019-02-24T05:32:34.086Z,55.46
2019-02-24T05:35:02.512Z,55.22
2019-02-24T05:37:30.778Z,55.04
2019-02-24T05:39:59.045Z,54.84
2019-02-24T05:42:28.319Z,55.19
2019-02-24T05:44:56.609Z,54.56
2019-02-24T05:47:24.887Z,54.63
2019-02-24T05:49:53.184Z,54.32
2019-02-24T05:52:21.449Z,54.13
2019-02-24T05:54:51.802Z,53.64
2019-02-24T05:57:19.741Z,53.37
2019-02-24T05:59:55.045Z,53.35
2019-02-24T06:02:18.049Z,53.47
2019-02-24T06:04:46.314Z,53.63
2019-02-24T06:07:14.646Z,53.47
2019-02-24T06:09:42.906Z,53.81
2019-02-24T06:12:11.188Z,53.13
2019-02-24T06:14:39.472Z,53.51
2019-02-24T06:17:07.767Z,53.72
2019-02-24T06:19:36.025Z,54.08
2019-02-24T06:22:04.341Z,53.84
2019-02-24T06:24:32.612Z,54.09
2019-02-24T06:27:00.922Z,54.39
2019-02-24T06:29:29.214Z,54.73
2019-02-24T06:31:57.487Z,54.82
2019-02-24T06:34:25.770Z,54.82
2019-02-24T06:36:54.046Z,54.66
2019-02-24T06:39:22.344Z,54.42
2019-02-24T06:41:50.603Z,54.24
2019-02-24T06:44:18.879Z,54.32
2019-02-24T06:46:47.140Z,54.03
2019-02-24T06:49:15.435Z,53.92
2019-02-24T06:51:43.703Z,53.51
2019-02-24T06:54:11.992Z,53.88
2019-02-24T06:56:40.291Z,53.93
2019-02-24T06:59:08.561Z,54.63
2019-02-24T07:01:36.837Z,53.50
2019-02-24T07:04:05.099Z,52.69
2019-02-24T07:06:33.394Z,52.46
2019-02-24T07:09:01.661Z,52.90
2019-02-24T07:11:29.932Z,52.13
2019-02-24T07:13:58.219Z,52.21
2019-02-24T07:16:26.485Z,52.10
2019-02-24T07:18:54.755Z,52.66
2019-02-24T07:21:23.017Z,51.92
2019-02-24T07:23:51.313Z,51.78
2019-02-24T07:26:19.609Z,51.93
2019-02-24T07:28:47.914Z,52.59
2019-02-24T07:31:16.209Z,52.76
2019-02-24T07:33:44.474Z,53.78
2019-02-24T07:36:12.766Z,52.24
2019-02-24T07:38:41.026Z,51.27
2019-02-24T07:41:09.324Z,51.29
2019-02-24T07:43:37.586Z,53.28
2019-02-24T07:46:05.888Z,52.89
2019-02-24T07:48:34.153Z,53.33
2019-02-24T07:51:02.456Z,52.77
2019-02-24T07:53:30.727Z,53.09
2019-02-24T07:55:59.010Z,52.19
2019-02-24T07:58:27.284Z,51.97
2019-02-24T08:00:55.605Z,50.99
2019-02-24T08:03:23.887Z,49.67
2019-02-24T08:05:52.146Z,49.71
2019-02-24T08:08:20.444Z,50.19
2019-02-24T08:10:48.706Z,51.42
2019-02-24T08:13:17.001Z,51.58
2019-02-24T08:15:45.266Z,52.70
2019-02-24T08:18:13.565Z,51.75
2019-02-24T08:20:41.832Z,52.42
2019-02-24T08:23:11.055Z,52.63
2019-02-24T08:25:39.485Z,52.55
2019-02-24T08:28:07.746Z,51.97
2019-02-24T08:30:41.570Z,51.42
2019-02-24T08:33:06.909Z,51.77
2019-02-24T08:35:35.185Z,50.34
2019-02-24T08:38:03.440Z,50.77
2019-02-24T08:40:33.345Z,51.23
2019-02-24T08:43:01.605Z,49.80
2019-02-24T08:45:29.884Z,49.42
2019-02-24T08:47:58.193Z,49.41
2019-02-24T08:50:26.454Z,48.84
2019-02-24T08:52:54.729Z,48.17
2019-02-24T08:55:23.017Z,47.29
2019-02-24T08:57:51.283Z,47.31
2019-02-24T09:00:19.551Z,47.60
2019-02-24T09:02:47.840Z,46.89
2019-02-24T09:05:16.117Z,46.92
2019-02-24T09:07:44.394Z,48.79
2019-02-24T09:10:12.651Z,47.81
2019-02-24T09:12:40.945Z,47.58
2019-02-24T09:15:14.038Z,47.15
2019-02-24T09:17:42.337Z,46.61
2019-02-24T09:20:11.642Z,46.71
2019-02-24T09:22:39.949Z,45.84
2019-02-24T09:25:08.778Z,45.22
2019-02-24T09:27:37.082Z,44.99
2019-02-24T09:30:08.610Z,44.38
2019-02-24T09:32:37.846Z,44.39
2019-02-24T09:35:07.466Z,43.14
2019-02-24T09:37:35.763Z,41.90
2019-02-24T09:40:09.207Z,41.08
2019-02-24T09:42:37.473Z,40.99
2019-02-24T09:45:08.594Z,40.38
2019-02-24T09:47:46.033Z,40.61
2019-02-24T09:50:09.060Z,40.51
2019-02-24T09:52:37.323Z,41.13
2019-02-24T09:55:07.566Z,41.83
2019-02-24T09:57:37.114Z,43.82
2019-02-24T10:00:11.461Z,41.76
2019-02-24T10:02:39.769Z,41.54
2019-02-24T10:05:08.048Z,41.95
2019-02-24T10:07:36.324Z,40.72
2019-02-24T10:10:07.198Z,40.39
2019-02-24T10:12:35.460Z,40.65
2019-02-24T10:15:04.258Z,40.91
2019-02-24T10:17:34.815Z,41.16
2019-02-24T10:20:03.079Z,40.88
2019-02-24T10:22:31.367Z,40.28
2019-02-24T10:24:59.684Z,40.65
2019-02-24T10:27:27.949Z,40.28
2019-02-24T10:29:56.237Z,39.86
2019-02-24T10:32:24.540Z,40.82
2019-02-24T10:34:52.858Z,40.37
2019-02-24T10:37:21.138Z,39.23
2019-02-24T10:39:49.433Z,40.53
2019-02-24T10:42:17.711Z,40.67
2019-02-24T10:44:45.999Z,41.05
2019-02-24T10:47:14.618Z,39.60
2019-02-24T10:49:43.044Z,39.47
2019-02-24T10:52:11.307Z,39.50
2019-02-24T10:54:39.591Z,39.59
2019-02-24T10:57:11.797Z,39.68
2019-02-24T10:59:37.881Z,40.62
2019-02-24T11:02:06.184Z,40.82
2019-02-24T11:04:36.083Z,42.22
2019-02-24T11:07:04.362Z,41.19
2019-02-24T11:09:32.639Z,41.65
2019-02-24T11:12:01.192Z,41.47
2019-02-24T11:14:29.499Z,41.02
2019-02-24T11:16:57.759Z,41.62
2019-02-24T11:19:26.063Z,40.81
2019-02-24T11:21:54.324Z,41.29
2019-02-24T11:24:22.590Z,40.80
2019-02-24T11:26:50.875Z,40.02
2019-02-24T11:29:19.145Z,39.71
2019-02-24T11:31:47.446Z,40.15
2019-02-24T11:34:16.757Z,39.79
2019-02-24T11:36:45.086Z,40.23
2019-02-24T11:39:13.347Z,39.04
2019-02-24T11:41:41.604Z,37.50
2019-02-24T11:44:09.906Z,39.67
2019-02-24T11:46:38.173Z,39.62
2019-02-24T11:49:06.457Z,38.99
2019-02-24T11:51:34.733Z,39.63
2019-02-24T11:54:03.009Z,39.15
2019-02-24T11:56:31.306Z,39.03
2019-02-24T11:58:59.620Z,38.22
2019-02-24T12:01:27.904Z,38.63
2019-02-24T12:03:56.206Z,38.29
2019-02-24T12:06:24.468Z,37.99
2019-02-24T12:08:52.788Z,37.34
2019-02-24T12:11:21.052Z,38.67
2019-02-24T12:13:49.341Z,38.51
2019-02-24T12:16:17.645Z,37.32
2019-02-24T12:18:45.961Z,35.58
2019-02-24T12:21:14.227Z,35.97
2019-02-24T12:23:42.506Z,36.77
2019-02-24T12:26:10.828Z,39.32
2019-02-24T12:28:39.110Z,39.05
2019-02-24T12:31:07.368Z,38.63
2019-02-24T12:33:35.635Z,37.52
2019-02-24T12:36:03.925Z,31.10
2019-02-24T12:38:32.200Z,31.64
2019-02-24T12:41:00.503Z,30.45
2019-02-24T12:43:28.784Z,32.12
2019-02-24T12:45:57.048Z,32.27
2019-02-24T12:48:25.369Z,33.29
2019-02-24T12:50:53.622Z,32.16
2019-02-24T12:53:21.882Z,31.79
2019-02-24T12:55:50.160Z,30.32
2019-02-24T12:58:18.488Z,30.58
2019-02-24T13:00:46.747Z,30.14
2019-02-24T13:03:23.605Z,30.77
2019-02-24T13:05:45.583Z,30.98
2019-02-24T13:08:13.857Z,31.74
2019-02-24T13:10:42.133Z,31.57
2019-02-24T13:13:10.467Z,31.46
2019-02-24T13:15:38.714Z,31.45
2019-02-24T13:18:06.974Z,29.75
2019-02-24T13:20:35.267Z,30.71
2019-02-24T13:23:03.540Z,32.05
2019-02-24T13:25:33.072Z,32.88
2019-02-24T13:28:01.370Z,34.75
2019-02-24T13:30:29.640Z,36.56
2019-02-24T13:32:57.740Z,38.48
2019-02-24T13:35:25.998Z,38.21
2019-02-24T13:37:54.306Z,38.23
2019-02-24T13:40:22.576Z,37.48
2019-02-24T13:42:50.835Z,36.50
2019-02-24T13:45:20.564Z,35.97
2019-02-24T13:47:49.961Z,35.99
2019-02-24T13:50:18.221Z,36.41
2019-02-24T13:52:46.517Z,36.41
2019-02-24T13:55:15.735Z,35.66
2019-02-24T13:57:44.020Z,36.41
2019-02-24T14:00:20.158Z,35.60
2019-02-24T14:02:48.457Z,35.40
2019-02-24T14:05:16.723Z,34.54
2019-02-24T14:07:45.016Z,34.27
2019-02-24T14:10:14.318Z,34.58
2019-02-24T14:12:42.626Z,34.25
2019-02-24T14:15:13.059Z,33.12
2019-02-24T14:17:41.338Z,30.93
2019-02-24T14:20:17.100Z,31.55
2019-02-24T14:22:45.370Z,30.48
2019-02-24T14:25:17.116Z,29.98
2019-02-24T14:27:45.399Z,30.09
2019-02-24T14:30:19.446Z,30.65
2019-02-24T14:32:47.707Z,31.22
2019-02-24T14:35:23.415Z,30.98
2019-02-24T14:37:51.707Z,31.76
2019-02-24T14:40:19.964Z,32.08
2019-02-24T14:42:48.262Z,31.33
2019-02-24T14:45:23.962Z,31.06
2019-02-24T14:47:54.275Z,32.47
2019-02-24T14:50:22.558Z,32.38
2019-02-24T14:52:50.855Z,33.38
2019-02-24T14:55:19.116Z,31.77
2019-02-24T14:57:47.443Z,32.45
2019-02-24T15:00:23.084Z,32.11
2019-02-24T15:02:51.377Z,33.23
2019-02-24T15:05:19.641Z,33.50
2019-02-24T15:07:48.084Z,33.01
2019-02-24T15:10:26.400Z,31.89
2019-02-24T15:12:54.711Z,32.42
2019-02-24T15:15:36.706Z,31.60
2019-02-24T15:18:04.373Z,30.72
2019-02-24T15:20:34.608Z,32.63
2019-02-24T15:23:02.872Z,33.58
2019-02-24T15:25:32.184Z,33.43
2019-02-24T15:28:01.764Z,32.64
2019-02-24T15:30:34.113Z,32.24
2019-02-24T15:33:02.387Z,31.73
2019-02-24T15:35:30.680Z,31.62
2019-02-24T15:37:58.940Z,31.41
2019-02-24T15:40:27.244Z,32.47
2019-02-24T15:43:02.512Z,33.76
2019-02-24T15:45:30.948Z,35.13
2019-02-24T15:47:59.209Z,35.42
2019-02-24T15:50:27.480Z,35.33
2019-02-24T15:52:57.243Z,34.95
2019-02-24T15:55:25.534Z,34.12
2019-02-24T15:57:53.800Z,34.84
2019-02-24T16:00:24.331Z,34.78
2019-02-24T16:03:01.127Z,34.69
2019-02-24T16:05:22.624Z,34.71
2019-02-24T16:07:50.918Z,33.81
2019-02-24T16:10:21.431Z,33.90
2019-02-24T16:12:49.813Z,34.89
2019-02-24T16:15:28.237Z,35.20
2019-02-24T16:17:56.572Z,35.26
2019-02-24T16:20:29.715Z,35.75
2019-02-24T16:22:57.981Z,36.14
2019-02-24T16:25:27.738Z,36.90
2019-02-24T16:27:56.032Z,36.82
2019-02-24T16:30:24.299Z,36.52
2019-02-24T16:32:52.648Z,36.31
2019-02-24T16:35:20.910Z,36.78
2019-02-24T16:37:49.197Z,36.75
2019-02-24T16:40:24.960Z,36.65
2019-02-24T16:42:54.874Z,36.46
2019-02-24T16:45:23.180Z,36.38
2019-02-24T16:47:51.473Z,37.27
2019-02-24T16:50:21.512Z,37.63
2019-02-24T16:52:49.843Z,37.10
2019-02-24T16:55:18.408Z,36.41
2019-02-24T16:57:46.649Z,35.27
2019-02-24T17:00:25.549Z,34.53
2019-02-24T17:02:53.814Z,34.87
2019-02-24T17:05:22.124Z,34.68
2019-02-24T17:07:50.439Z,34.12
2019-02-24T17:10:20.088Z,34.32
2019-02-24T17:12:48.366Z,33.57
2019-02-24T17:15:16.643Z,33.99
2019-02-24T17:17:44.921Z,35.03
2019-02-24T17:20:21.558Z,36.18
2019-02-24T17:22:49.853Z,36.85
2019-02-24T17:25:18.130Z,36.57
2019-02-24T17:27:46.439Z,36.37
2019-02-24T17:30:18.406Z,36.82
2019-02-24T17:32:46.668Z,37.90
2019-02-24T17:35:14.972Z,38.84
2019-02-24T17:37:43.230Z,39.38
2019-02-24T17:40:19.397Z,38.61
2019-02-24T17:42:47.204Z,38.67
2019-02-24T17:45:15.501Z,37.76
2019-02-24T17:47:43.765Z,37.09
2019-02-24T17:50:13.409Z,37.80
2019-02-24T17:52:41.705Z,38.37
2019-02-24T17:55:14.504Z,39.46
2019-02-24T17:57:42.766Z,38.98
2019-02-24T18:00:26.658Z,38.52
2019-02-24T18:02:55.518Z,38.98
2019-02-24T18:05:23.802Z,39.40
2019-02-24T18:07:52.059Z,39.80
2019-02-24T18:10:21.000Z,39.69
2019-02-24T18:12:49.402Z,39.37
2019-02-24T18:15:17.687Z,39.21
2019-02-24T18:17:45.963Z,38.91
2019-02-24T18:20:19.561Z,38.13
2019-02-24T18:22:47.867Z,38.60
2019-02-24T18:25:16.145Z,39.26
2019-02-24T18:27:44.420Z,39.56
2019-02-24T18:30:23.581Z,39.64
2019-02-24T18:32:51.939Z,38.84
2019-02-24T18:35:20.219Z,38.88
2019-02-24T18:37:51.782Z,40.02
2019-02-24T18:40:20.211Z,38.35
2019-02-24T18:42:48.623Z,38.17
2019-02-24T18:45:16.863Z,38.51
2019-02-24T18:47:45.128Z,38.55
2019-02-24T18:50:18.515Z,39.25
2019-02-24T18:52:46.780Z,38.86
2019-02-24T18:55:15.050Z,38.55
2019-02-24T18:57:43.334Z,39.04
2019-02-24T19:00:16.558Z,38.39
2019-02-24T19:02:44.824Z,38.51
2019-02-24T19:05:13.134Z,38.19
2019-02-24T19:07:41.396Z,38.76
2019-02-24T19:10:12.478Z,38.53
2019-02-24T19:12:40.742Z,38.39
2019-02-24T19:15:12.156Z,38.68
2019-02-24T19:17:40.420Z,39.01
2019-02-24T19:20:14.471Z,39.01
2019-02-24T19:22:42.749Z,39.18
2019-02-24T19:25:11.582Z,40.01
2019-02-24T19:27:39.902Z,39.96
2019-02-24T19:30:11.707Z,39.69
2019-02-24T19:32:39.329Z,39.57
2019-02-24T19:35:09.238Z,39.83
2019-02-24T19:37:37.520Z,39.52
2019-02-24T19:40:11.156Z,39.61
2019-02-24T19:42:39.480Z,39.10
2019-02-24T19:45:15.944Z,39.34
2019-02-24T19:47:44.321Z,39.39
2019-02-24T19:50:15.304Z,39.86
2019-02-24T19:52:43.586Z,38.75
2019-02-24T19:55:13.585Z,38.78
2019-02-24T19:57:41.883Z,38.24
2019-02-24T20:00:13.185Z,38.62
2019-02-24T20:02:41.481Z,39.42
2019-02-24T20:05:10.960Z,39.22
2019-02-24T20:07:39.251Z,38.76
2019-02-24T20:10:10.214Z,39.82
2019-02-24T20:12:38.500Z,40.19
2019-02-24T20:15:12.370Z,40.32
2019-02-24T20:17:40.666Z,40.25
2019-02-24T20:20:12.539Z,40.45
2019-02-24T20:22:42.565Z,40.25
2019-02-24T20:25:16.857Z,40.06
2019-02-24T20:27:45.162Z,39.75
2019-02-24T20:30:21.914Z,39.57
2019-02-24T20:32:50.211Z,39.79
2019-02-24T20:35:18.497Z,39.81
2019-02-24T20:37:46.764Z,39.54
2019-02-24T20:40:15.064Z,39.65
2019-02-24T20:42:43.328Z,39.80
2019-02-24T20:45:17.022Z,39.74
2019-02-24T20:47:45.288Z,39.67
2019-02-24T20:50:19.195Z,39.92
2019-02-24T20:52:47.501Z,40.13
2019-02-24T20:55:16.992Z,40.31
2019-02-24T20:57:45.291Z,40.25
2019-02-24T21:00:16.968Z,39.91
2019-02-24T21:02:45.284Z,39.38
2019-02-24T21:05:13.610Z,39.88
2019-02-24T21:07:41.878Z,40.25
2019-02-24T21:10:11.640Z,40.86
2019-02-24T21:12:39.930Z,40.34
2019-02-24T21:15:14.896Z,40.05
2019-02-24T21:17:43.167Z,40.02
2019-02-24T21:20:17.282Z,40.09
2019-02-24T21:22:45.565Z,40.14
2019-02-24T21:25:14.607Z,40.91
2019-02-24T21:27:42.880Z,40.52
2019-02-24T21:30:14.084Z,40.29
2019-02-24T21:32:42.365Z,39.96
2019-02-24T21:35:11.415Z,40.18
2019-02-24T21:37:39.680Z,39.92
2019-02-24T21:40:12.876Z,39.86
2019-02-24T21:42:41.182Z,39.77
2019-02-24T21:45:13.350Z,40.16
2019-02-24T21:47:41.670Z,40.12
2019-02-24T21:50:12.404Z,40.25
2019-02-24T21:52:40.711Z,41.01
2019-02-24T21:55:09.919Z,41.00
2019-02-24T21:57:38.185Z,41.27
2019-02-24T22:00:15.594Z,41.92
2019-02-24T22:02:43.856Z,42.29
2019-02-24T22:05:12.579Z,42.56
2019-02-24T22:07:40.841Z,41.92
2019-02-24T22:10:13.421Z,41.51
2019-02-24T22:12:41.691Z,41.87
2019-02-24T22:15:18.952Z,41.66
2019-02-24T22:17:47.225Z,42.64
2019-02-24T22:20:15.877Z,42.83
2019-02-24T22:22:44.686Z,42.34
2019-02-24T22:25:14.096Z,43.19
2019-02-24T22:27:42.399Z,43.27
2019-02-24T22:30:18.876Z,42.70
2019-02-24T22:32:48.457Z,43.72
2019-02-24T22:35:16.715Z,43.08
2019-02-24T22:37:45.026Z,42.95
2019-02-24T22:40:16.797Z,43.38
2019-02-24T22:42:45.739Z,42.63
2019-02-24T22:45:18.758Z,43.31
2019-02-24T22:47:47.120Z,43.42
2019-02-24T22:50:15.947Z,44.28
2019-02-24T22:52:44.846Z,43.86
2019-02-24T22:55:17.017Z,44.18
2019-02-24T22:57:45.290Z,44.62
2019-02-24T23:00:27.500Z,44.38
2019-02-24T23:02:55.766Z,44.22
2019-02-24T23:05:24.042Z,44.56
2019-02-24T23:07:52.343Z,44.61
2019-02-24T23:10:20.613Z,45.10
2019-02-24T23:12:48.916Z,44.52
2019-02-24T23:15:17.182Z,44.29
2019-02-24T23:17:45.453Z,44.31
2019-02-24T23:20:13.724Z,45.09
2019-02-24T23:22:41.999Z,45.09
2019-02-24T23:25:10.302Z,45.90
2019-02-24T23:27:38.604Z,47.62
2019-02-24T23:30:09.217Z,47.20
2019-02-24T23:32:37.481Z,46.87
2019-02-24T23:35:06.618Z,47.25
2019-02-24T23:37:34.915Z,46.75
2019-02-24T23:40:04.489Z,47.02
2019-02-24T23:42:32.750Z,46.34
2019-02-24T23:45:09.923Z,45.58
2019-02-24T23:47:31.033Z,45.20
2019-02-24T23:49:59.329Z,45.62
2019-02-24T23:52:27.625Z,45.23
2019-02-24T23:54:55.891Z,45.27
2019-02-24T23:57:24.185Z,45.18
2019-02-24T23:59:52.492Z,45.92
